createdAt,value
2019-04-30T00:01:55.882Z,36.70
2019-04-30T00:04:29.897Z,45.73
2019-04-30T00:06:57.004Z,44.57
2019-04-30T00:09:27.590Z,45.80
2019-04-30T00:12:00.972Z,43.73
2019-04-30T00:14:37.275Z,49.47
2019-04-30T00:16:59.542Z,49.73
2019-04-30T00:19:29.138Z,47.33
2019-04-30T00:22:00.454Z,44.07
2019-04-30T00:24:30.521Z,41.43
2019-04-30T00:27:00.075Z,45.03
2019-04-30T00:29:31.009Z,46.83
2019-04-30T00:32:04.403Z,46.03
2019-04-30T00:34:37.886Z,44.37
2019-04-30T00:37:07.372Z,38.33
2019-04-30T00:39:35.581Z,34.83
2019-04-30T00:42:05.208Z,35.90
2019-04-30T00:44:35.652Z,34.93
2019-04-30T00:47:08.263Z,35.40
2019-04-30T00:49:37.975Z,37.43
2019-04-30T00:52:07.538Z,32.70
2019-04-30T00:54:37.127Z,33.80
2019-04-30T00:57:07.640Z,35.20
2019-04-30T00:59:39.844Z,31.43
2019-04-30T01:02:10.734Z,32.20
2019-04-30T01:04:42.003Z,36.07
2019-04-30T01:07:15.424Z,32.97
2019-04-30T01:09:49.521Z,34.33
2019-04-30T01:12:27.691Z,38.93
2019-04-30T01:14:49.800Z,36.53
2019-04-30T01:17:19.638Z,37.47
2019-04-30T01:19:51.154Z,35.83
2019-04-30T01:22:27.750Z,33.17
2019-04-30T01:24:52.380Z,30.80
2019-04-30T01:27:21.976Z,31.57
2019-04-30T01:29:51.670Z,28.73
2019-04-30T01:32:21.342Z,28.97
2019-04-30T01:34:53.853Z,29.23
2019-04-30T01:37:28.652Z,28.13
2019-04-30T01:39:53.285Z,27.60
2019-04-30T01:42:22.888Z,31.70
2019-04-30T01:44:53.852Z,32.73
2019-04-30T01:47:27.599Z,30.73
2019-04-30T01:49:55.795Z,32.43
2019-04-30T01:52:31.103Z,31.80
2019-04-30T01:54:59.191Z,28.53
2019-04-30T01:57:34.616Z,28.43
2019-04-30T02:00:22.916Z,29.43
2019-04-30T02:02:52.491Z,30.53
2019-04-30T02:05:22.004Z,34.43
2019-04-30T02:07:51.570Z,35.93
2019-04-30T02:10:21.125Z,33.97
2019-04-30T02:12:50.736Z,33.70
2019-04-30T02:15:20.174Z,34.23
2019-04-30T02:17:50.529Z,31.10
2019-04-30T02:20:20.215Z,33.53
2019-04-30T02:22:49.759Z,33.03
2019-04-30T02:25:19.628Z,33.33
2019-04-30T02:27:49.142Z,30.07
2019-04-30T02:30:20.781Z,33.20
2019-04-30T02:32:52.519Z,31.33
2019-04-30T02:35:40.727Z,32.23
2019-04-30T02:38:13.925Z,31.17
2019-04-30T02:40:44.486Z,26.43
2019-04-30T02:43:15.246Z,25.23
2019-04-30T02:45:49.589Z,25.77
2019-04-30T02:48:22.879Z,28.57
2019-04-30T02:50:54.477Z,30.83
2019-04-30T02:53:50.450Z,32.27
2019-04-30T02:56:26.529Z,30.47
2019-04-30T02:58:54.602Z,28.40
2019-04-30T03:01:24.075Z,29.37
2019-04-30T03:03:53.515Z,26.53
2019-04-30T03:06:23.778Z,28.97
2019-04-30T03:08:53.492Z,28.97
2019-04-30T03:11:23.031Z,28.53
2019-04-30T03:13:52.492Z,28.50
2019-04-30T03:16:26.302Z,29.53
2019-04-30T03:19:00.143Z,29.57
2019-04-30T03:21:46.140Z,31.90
2019-04-30T03:24:15.584Z,30.30
2019-04-30T03:26:45.009Z,32.97
2019-04-30T03:29:14.463Z,35.67
2019-04-30T03:31:45.662Z,31.53
2019-04-30T03:34:19.598Z,33.23
2019-04-30T03:36:46.266Z,28.57
2019-04-30T03:39:15.798Z,30.00
2019-04-30T03:41:45.240Z,31.50
2019-04-30T03:44:21.590Z,32.00
2019-04-30T03:46:45.919Z,30.17
2019-04-30T03:49:15.386Z,31.67
2019-04-30T03:51:44.822Z,35.20
2019-04-30T03:54:14.273Z,34.83
2019-04-30T03:56:44.171Z,35.23
2019-04-30T03:59:13.740Z,33.67
2019-04-30T04:01:50.885Z,29.50
2019-04-30T04:04:39.495Z,32.90
2019-04-30T04:07:12.766Z,33.90
2019-04-30T04:09:46.711Z,33.30
2019-04-30T04:12:23.492Z,36.37
2019-04-30T04:14:53.262Z,36.20
2019-04-30T04:17:23.120Z,36.67
2019-04-30T04:19:52.589Z,35.87
2019-04-30T04:22:22.158Z,36.13
2019-04-30T04:24:51.801Z,38.43
2019-04-30T04:27:21.226Z,41.73
2019-04-30T04:29:51.333Z,39.10
2019-04-30T04:32:24.358Z,40.03
2019-04-30T04:34:52.174Z,42.17
2019-04-30T04:37:21.620Z,42.47
2019-04-30T04:39:51.142Z,40.17
2019-04-30T04:42:20.579Z,41.30
2019-04-30T04:44:50.545Z,43.10
2019-04-30T04:47:20.475Z,40.00
2019-04-30T04:49:53.206Z,39.47
2019-04-30T04:52:22.037Z,36.50
2019-04-30T04:54:51.842Z,40.27
2019-04-30T04:57:23.041Z,40.90
2019-04-30T04:59:52.747Z,38.47
2019-04-30T05:02:32.511Z,38.07
2019-04-30T05:05:00.647Z,43.83
2019-04-30T05:07:30.102Z,40.23
2019-04-30T05:10:00.953Z,32.63
2019-04-30T05:12:30.838Z,33.57
2019-04-30T05:15:00.292Z,33.13
2019-04-30T05:17:32.084Z,33.80
2019-04-30T05:20:00.922Z,40.40
2019-04-30T05:22:30.349Z,39.67
2019-04-30T05:25:00.087Z,37.00
2019-04-30T05:27:30.300Z,43.60
2019-04-30T05:29:59.937Z,44.40
2019-04-30T05:32:29.413Z,40.97
2019-04-30T05:34:58.883Z,37.17
2019-04-30T05:37:28.489Z,37.07
2019-04-30T05:39:58.834Z,37.23
2019-04-30T05:42:29.140Z,33.27
2019-04-30T05:44:59.267Z,31.73
2019-04-30T05:47:29.226Z,28.50
2019-04-30T05:49:58.865Z,31.83
2019-04-30T05:52:29.510Z,32.97
2019-04-30T05:55:00.172Z,30.20
2019-04-30T05:57:29.747Z,33.63
2019-04-30T05:59:59.272Z,34.57
2019-04-30T06:02:33.645Z,31.63
2019-04-30T06:04:59.935Z,32.00
2019-04-30T06:07:29.997Z,31.93
2019-04-30T06:10:11.109Z,31.67
2019-04-30T06:12:51.438Z,29.40
2019-04-30T06:15:39.093Z,31.40
2019-04-30T06:18:13.535Z,31.93
2019-04-30T06:20:41.459Z,31.27
2019-04-30T06:23:11.007Z,30.33
2019-04-30T06:25:55.309Z,23.87
2019-04-30T06:28:12.769Z,21.67
2019-04-30T06:30:42.297Z,21.20
2019-04-30T06:33:11.950Z,21.87
2019-04-30T06:35:41.415Z,21.87
2019-04-30T06:38:10.966Z,21.93
2019-04-30T06:40:41.028Z,23.73
2019-04-30T06:43:10.823Z,25.10
2019-04-30T06:45:40.827Z,22.87
2019-04-30T06:48:12.250Z,23.63
2019-04-30T06:50:41.696Z,21.80
2019-04-30T06:53:11.192Z,20.93
2019-04-30T06:55:40.632Z,19.10
2019-04-30T06:58:15.042Z,16.57
2019-04-30T07:00:41.622Z,16.47
2019-04-30T07:03:11.076Z,17.47
2019-04-30T07:05:40.645Z,19.53
2019-04-30T07:08:38.983Z,18.77
2019-04-30T07:11:20.737Z,19.10
2019-04-30T07:13:52.347Z,18.57
2019-04-30T07:16:21.993Z,18.10
2019-04-30T07:18:51.488Z,17.50
2019-04-30T07:21:21.036Z,16.30
2019-04-30T07:23:50.476Z,17.13
2019-04-30T07:26:24.480Z,18.00
2019-04-30T07:28:54.828Z,17.80
2019-04-30T07:31:22.751Z,18.10
2019-04-30T07:33:54.009Z,17.23
2019-04-30T07:36:42.396Z,18.07
2019-04-30T07:38:56.922Z,17.77
2019-04-30T07:41:30.890Z,20.20
2019-04-30T07:43:59.347Z,18.33
2019-04-30T07:46:29.980Z,20.70
2019-04-30T07:49:00.081Z,20.30
2019-04-30T07:51:32.170Z,20.53
2019-04-30T07:54:01.088Z,19.63
2019-04-30T07:56:37.330Z,18.83
2019-04-30T07:59:02.900Z,17.33
2019-04-30T08:01:34.115Z,17.83
2019-04-30T08:04:21.852Z,18.13
2019-04-30T08:06:51.325Z,15.97
2019-04-30T08:09:22.244Z,17.90
2019-04-30T08:11:51.790Z,18.23
2019-04-30T08:14:23.067Z,18.37
2019-04-30T08:16:52.763Z,17.80
2019-04-30T08:19:22.231Z,18.33
2019-04-30T08:21:51.644Z,17.57
2019-04-30T08:24:21.083Z,17.40
2019-04-30T08:26:51.876Z,18.07
2019-04-30T08:29:21.303Z,19.53
2019-04-30T08:31:50.776Z,17.73
2019-04-30T08:34:20.296Z,18.17
2019-04-30T08:36:49.740Z,17.90
2019-04-30T08:39:19.733Z,16.90
2019-04-30T08:41:49.476Z,16.87
2019-04-30T08:44:20.837Z,17.13
2019-04-30T08:46:51.688Z,17.20
2019-04-30T08:49:21.430Z,17.70
2019-04-30T08:51:51.264Z,17.53
2019-04-30T08:54:21.170Z,17.90
2019-04-30T08:56:50.778Z,18.23
2019-04-30T08:59:20.269Z,17.43
2019-04-30T09:01:49.820Z,18.77
2019-04-30T09:04:20.131Z,18.13
2019-04-30T09:06:49.816Z,19.17
2019-04-30T09:09:19.311Z,19.10
2019-04-30T09:11:52.912Z,19.03
2019-04-30T09:14:19.973Z,19.33
2019-04-30T09:16:51.356Z,19.87
2019-04-30T09:19:21.273Z,19.43
2019-04-30T09:21:50.854Z,19.23
2019-04-30T09:24:20.327Z,20.93
2019-04-30T09:26:49.830Z,20.23
2019-04-30T09:29:19.292Z,20.77
2019-04-30T09:31:49.299Z,21.40
2019-04-30T09:34:21.144Z,19.80
2019-04-30T09:36:50.043Z,20.33
2019-04-30T09:39:20.652Z,19.10
2019-04-30T09:41:50.662Z,19.80
2019-04-30T09:44:20.112Z,19.43
2019-04-30T09:46:49.576Z,19.87
2019-04-30T09:49:19.516Z,18.77
2019-04-30T09:51:49.814Z,19.23
2019-04-30T09:54:20.392Z,21.03
2019-04-30T09:56:52.620Z,20.43
2019-04-30T09:59:21.485Z,21.17
2019-04-30T10:01:50.942Z,19.33
2019-04-30T10:04:21.365Z,18.17
2019-04-30T10:06:51.302Z,19.80
2019-04-30T10:09:20.849Z,20.57
2019-04-30T10:11:59.572Z,19.93
2019-04-30T10:14:30.967Z,19.33
2019-04-30T10:17:02.143Z,18.27
2019-04-30T10:19:31.681Z,19.30
2019-04-30T10:22:01.164Z,20.00
2019-04-30T10:24:32.108Z,20.93
2019-04-30T10:27:02.498Z,21.30
2019-04-30T10:29:32.000Z,22.67
2019-04-30T10:32:01.705Z,22.67
2019-04-30T10:34:31.227Z,21.37
2019-04-30T10:37:02.964Z,21.50
2019-04-30T10:39:32.252Z,23.87
2019-04-30T10:42:02.202Z,23.13
2019-04-30T10:44:31.776Z,25.07
2019-04-30T10:47:01.250Z,24.70
2019-04-30T10:49:30.672Z,24.23
2019-04-30T10:52:01.170Z,24.50
2019-04-30T10:54:30.703Z,26.17
2019-04-30T10:57:00.707Z,25.73
2019-04-30T10:59:30.492Z,27.20
2019-04-30T11:01:59.950Z,27.33
2019-04-30T11:04:29.519Z,26.80
2019-04-30T11:07:00.551Z,28.27
2019-04-30T11:09:31.002Z,31.20
2019-04-30T11:12:02.992Z,30.87
2019-04-30T11:14:32.232Z,29.13
2019-04-30T11:17:01.950Z,29.80
2019-04-30T11:19:31.798Z,29.40
2019-04-30T11:22:01.644Z,29.90
2019-04-30T11:24:38.070Z,29.43
2019-04-30T11:27:03.204Z,29.90
2019-04-30T11:29:33.153Z,28.33
2019-04-30T11:32:07.737Z,28.80
2019-04-30T11:34:37.355Z,31.20
2019-04-30T11:37:06.869Z,30.77
2019-04-30T11:39:36.370Z,30.63
2019-04-30T11:42:06.167Z,29.43
2019-04-30T11:44:40.044Z,25.97
2019-04-30T11:47:20.228Z,28.17
2019-04-30T11:49:49.720Z,26.03
2019-04-30T11:52:19.324Z,25.70
2019-04-30T11:54:53.881Z,26.70
2019-04-30T11:57:20.090Z,25.07
2019-04-30T11:59:51.079Z,24.37
2019-04-30T12:02:22.397Z,23.63
2019-04-30T12:04:51.990Z,24.73
2019-04-30T12:07:25.786Z,24.60
2019-04-30T12:10:16.351Z,24.77
2019-04-30T12:12:45.870Z,23.87
2019-04-30T12:15:15.455Z,24.20
2019-04-30T12:17:44.911Z,24.37
2019-04-30T12:20:14.676Z,23.83
2019-04-30T12:22:44.130Z,24.70
2019-04-30T12:25:13.892Z,24.53
2019-04-30T12:27:43.357Z,25.57
2019-04-30T12:30:14.915Z,22.83
2019-04-30T12:32:44.377Z,20.77
2019-04-30T12:35:14.214Z,21.47
2019-04-30T12:37:43.807Z,20.30
2019-04-30T12:40:25.799Z,20.20
2019-04-30T12:42:44.931Z,19.70
2019-04-30T12:45:14.560Z,20.80
2019-04-30T12:47:45.656Z,21.63
2019-04-30T12:50:19.414Z,21.17
2019-04-30T12:52:56.087Z,21.57
2019-04-30T12:55:34.932Z,24.57
2019-04-30T12:58:04.971Z,27.30
2019-04-30T13:00:34.922Z,27.87
2019-04-30T13:03:04.524Z,28.80
2019-04-30T13:05:34.071Z,27.97
2019-04-30T13:08:04.623Z,28.77
2019-04-30T13:10:34.938Z,29.27
2019-04-30T13:13:05.245Z,27.03
2019-04-30T13:15:35.050Z,27.00
2019-04-30T13:18:04.711Z,25.17
2019-04-30T13:20:34.345Z,25.93
2019-04-30T13:23:04.094Z,24.30
2019-04-30T13:25:35.499Z,24.80
2019-04-30T13:28:06.401Z,24.57
2019-04-30T13:30:36.355Z,23.97
2019-04-30T13:33:25.495Z,21.93
2019-04-30T13:35:54.918Z,23.00
2019-04-30T13:38:32.286Z,23.90
2019-04-30T13:41:03.564Z,22.77
2019-04-30T13:43:51.375Z,22.27
2019-04-30T13:46:20.806Z,23.47
2019-04-30T13:48:50.288Z,24.37
2019-04-30T13:51:19.706Z,21.77
2019-04-30T13:53:49.306Z,21.30
2019-04-30T13:56:20.275Z,21.30
2019-04-30T13:58:50.379Z,19.87
2019-04-30T14:01:21.389Z,20.90
2019-04-30T14:03:52.831Z,22.60
2019-04-30T14:06:23.905Z,20.93
2019-04-30T14:08:55.070Z,22.23
2019-04-30T14:11:24.555Z,21.37
2019-04-30T14:13:54.112Z,22.00
2019-04-30T14:16:23.654Z,21.57
2019-04-30T14:18:53.237Z,21.33
2019-04-30T14:21:32.200Z,20.97
2019-04-30T14:23:54.020Z,19.53
2019-04-30T14:26:23.734Z,19.53
2019-04-30T14:28:53.194Z,19.80
2019-04-30T14:31:22.718Z,41.87
2019-04-30T14:33:52.164Z,20.63
2019-04-30T14:36:21.681Z,20.93
2019-04-30T14:38:51.140Z,20.43
2019-04-30T14:41:20.947Z,19.73
2019-04-30T14:44:09.413Z,22.10
2019-04-30T14:46:44.026Z,21.73
2019-04-30T14:49:28.335Z,22.23
2019-04-30T14:51:59.576Z,21.00
2019-04-30T14:54:50.185Z,22.20
2019-04-30T14:57:36.176Z,21.40
2019-04-30T15:00:25.314Z,21.37
2019-04-30T15:02:58.515Z,20.97
2019-04-30T15:05:38.543Z,23.77
2019-04-30T15:08:00.847Z,24.03
2019-04-30T15:10:30.629Z,24.30
2019-04-30T15:13:00.251Z,22.17
2019-04-30T15:15:31.284Z,23.47
2019-04-30T15:18:00.800Z,24.90
2019-04-30T15:20:30.253Z,25.37
2019-04-30T15:23:18.927Z,28.27
2019-04-30T15:25:44.863Z,28.70
2019-04-30T15:28:14.334Z,30.07
2019-04-30T15:30:43.968Z,28.83
2019-04-30T15:33:35.005Z,27.30
2019-04-30T15:36:05.842Z,27.47
2019-04-30T15:38:54.842Z,24.97
2019-04-30T15:41:24.923Z,26.10
2019-04-30T15:43:55.959Z,25.30
2019-04-30T15:46:25.660Z,25.20
2019-04-30T15:48:55.187Z,25.73
2019-04-30T15:51:24.753Z,26.23
2019-04-30T15:53:54.282Z,25.70
2019-04-30T15:56:34.420Z,25.17
2019-04-30T15:59:13.432Z,25.07
2019-04-30T16:01:47.577Z,23.63
2019-04-30T16:04:19.694Z,20.27
2019-04-30T16:06:49.363Z,21.67
2019-04-30T16:09:32.814Z,21.53
2019-04-30T16:12:09.673Z,21.37
2019-04-30T16:14:41.012Z,21.40
2019-04-30T16:17:12.124Z,22.57
2019-04-30T16:19:41.601Z,22.70
2019-04-30T16:22:12.706Z,21.40
2019-04-30T16:24:43.729Z,21.70
2019-04-30T16:27:13.265Z,23.37
2019-04-30T16:29:45.470Z,23.00
2019-04-30T16:32:15.596Z,22.63
2019-04-30T16:34:45.187Z,21.43
2019-04-30T16:37:14.784Z,21.23
2019-04-30T16:39:44.265Z,20.83
2019-04-30T16:42:13.694Z,21.43
2019-04-30T16:44:43.235Z,21.97
2019-04-30T16:47:16.510Z,19.83
2019-04-30T16:49:43.823Z,21.10
2019-04-30T16:52:13.276Z,20.70
2019-04-30T16:54:42.719Z,20.00
2019-04-30T16:57:12.237Z,20.43
2019-04-30T16:59:42.457Z,25.57
2019-04-30T17:02:13.219Z,22.87
2019-04-30T17:04:44.391Z,24.67
2019-04-30T17:07:18.788Z,23.00
2019-04-30T17:09:51.020Z,25.13
2019-04-30T17:12:22.969Z,24.30
2019-04-30T17:15:10.482Z,22.97
2019-04-30T17:17:40.691Z,22.73
2019-04-30T17:20:10.584Z,24.13
2019-04-30T17:22:40.005Z,28.13
2019-04-30T17:25:09.788Z,25.40
2019-04-30T17:27:39.359Z,25.43
2019-04-30T17:30:11.084Z,23.67
2019-04-30T17:32:40.668Z,23.97
2019-04-30T17:35:10.552Z,22.60
2019-04-30T17:37:39.966Z,23.50
2019-04-30T17:40:09.960Z,25.17
2019-04-30T17:42:39.563Z,23.43
2019-04-30T17:45:10.785Z,25.10
2019-04-30T17:47:40.200Z,24.83
2019-04-30T17:50:10.389Z,24.73
2019-04-30T17:52:39.801Z,24.00
2019-04-30T17:55:09.937Z,27.27
2019-04-30T17:57:40.289Z,25.50
2019-04-30T18:00:18.856Z,26.90
2019-04-30T18:02:43.440Z,25.87
2019-04-30T18:05:13.041Z,28.83
2019-04-30T18:07:42.549Z,25.13
2019-04-30T18:10:14.666Z,27.00
2019-04-30T18:12:44.227Z,24.63
2019-04-30T18:15:18.914Z,24.50
2019-04-30T18:18:05.247Z,24.17
2019-04-30T18:20:39.380Z,24.97
2019-04-30T18:23:27.063Z,25.30
2019-04-30T18:26:05.789Z,29.70
2019-04-30T18:28:35.281Z,24.60
2019-04-30T18:31:05.639Z,25.40
2019-04-30T18:33:35.468Z,24.10
2019-04-30T18:36:05.086Z,21.43
2019-04-30T18:38:34.547Z,22.13
2019-04-30T18:41:04.014Z,21.77
2019-04-30T18:43:33.581Z,23.37
2019-04-30T18:46:03.083Z,24.53
2019-04-30T18:48:32.534Z,22.87
2019-04-30T18:51:15.974Z,25.33
2019-04-30T18:53:34.863Z,26.23
2019-04-30T18:56:04.383Z,23.57
2019-04-30T18:58:39.956Z,22.30
2019-04-30T19:01:05.473Z,22.87
2019-04-30T19:03:35.200Z,25.67
2019-04-30T19:06:06.419Z,22.57
2019-04-30T19:08:39.545Z,25.30
2019-04-30T19:11:29.944Z,22.93
2019-04-30T19:14:16.474Z,23.90
2019-04-30T19:16:56.482Z,21.93
2019-04-30T19:19:30.306Z,22.60
2019-04-30T19:21:59.807Z,22.53
2019-04-30T19:24:29.377Z,25.90
2019-04-30T19:26:58.952Z,26.53
2019-04-30T19:29:29.259Z,25.90
2019-04-30T19:31:59.444Z,26.67
2019-04-30T19:34:31.515Z,25.97
2019-04-30T19:37:00.146Z,24.93
2019-04-30T19:39:32.356Z,24.60
2019-04-30T19:42:01.106Z,25.97
2019-04-30T19:44:30.774Z,25.40
2019-04-30T19:47:00.204Z,23.23
2019-04-30T19:49:29.622Z,25.20
2019-04-30T19:52:07.587Z,24.37
2019-04-30T19:54:30.323Z,22.57
2019-04-30T19:57:00.040Z,22.83
2019-04-30T19:59:31.014Z,22.20
2019-04-30T20:02:00.551Z,23.30
2019-04-30T20:04:35.657Z,23.40
2019-04-30T20:07:01.443Z,25.53
2019-04-30T20:09:30.862Z,26.40
2019-04-30T20:12:00.312Z,25.87
2019-04-30T20:14:29.731Z,26.00
2019-04-30T20:16:59.286Z,26.40
2019-04-30T20:19:30.679Z,26.90
2019-04-30T20:22:00.290Z,29.30
2019-04-30T20:24:29.853Z,27.00
2019-04-30T20:27:06.960Z,28.73
2019-04-30T20:29:30.538Z,28.37
2019-04-30T20:32:00.020Z,27.03
2019-04-30T20:34:29.480Z,26.60
2019-04-30T20:37:00.315Z,29.07
2019-04-30T20:39:39.488Z,29.83
2019-04-30T20:42:09.841Z,31.20
2019-04-30T20:44:39.299Z,32.07
2019-04-30T20:47:09.003Z,32.03
2019-04-30T20:49:39.140Z,32.97
2019-04-30T20:52:08.682Z,31.27
2019-04-30T20:54:39.007Z,32.57
2019-04-30T20:57:08.842Z,34.47
2019-04-30T20:59:38.840Z,32.27
2019-04-30T21:02:08.323Z,30.20
2019-04-30T21:04:37.753Z,29.13
2019-04-30T21:07:09.357Z,30.50
2019-04-30T21:09:38.394Z,34.23
2019-04-30T21:12:09.481Z,28.83
2019-04-30T21:14:40.624Z,28.73
2019-04-30T21:17:10.261Z,23.07
2019-04-30T21:19:39.669Z,21.97
2019-04-30T21:22:09.574Z,22.20
2019-04-30T21:24:39.194Z,20.23
2019-04-30T21:27:08.633Z,22.03
2019-04-30T21:29:39.122Z,20.33
2019-04-30T21:32:13.303Z,21.60
2019-04-30T21:34:53.265Z,21.60
2019-04-30T21:37:22.722Z,19.87
2019-04-30T21:39:52.351Z,18.17
2019-04-30T21:42:21.811Z,19.23
2019-04-30T21:44:52.269Z,20.70
2019-04-30T21:47:21.723Z,19.30
2019-04-30T21:49:51.283Z,21.60
2019-04-30T21:52:20.730Z,19.83
2019-04-30T21:54:51.382Z,18.07
2019-04-30T21:57:21.196Z,20.90
2019-04-30T21:59:50.663Z,21.63
2019-04-30T22:02:20.347Z,19.57
2019-04-30T22:04:50.000Z,18.13
2019-04-30T22:07:19.663Z,19.53
2019-04-30T22:09:49.297Z,18.70
2019-04-30T22:12:19.112Z,19.40
2019-04-30T22:14:48.836Z,21.17
2019-04-30T22:17:19.281Z,18.80
2019-04-30T22:19:49.105Z,19.80
2019-04-30T22:22:19.978Z,18.37
2019-04-30T22:24:51.123Z,16.87
2019-04-30T22:27:20.558Z,16.10
2019-04-30T22:29:49.997Z,16.03
2019-04-30T22:32:19.467Z,15.30
2019-04-30T22:34:48.982Z,15.27
2019-04-30T22:37:19.531Z,15.97
2019-04-30T22:40:02.602Z,16.30
2019-04-30T22:42:34.829Z,17.83
2019-04-30T22:45:07.677Z,16.20
2019-04-30T22:47:37.128Z,16.37
2019-04-30T22:50:07.725Z,19.57
2019-04-30T22:52:37.162Z,18.03
2019-04-30T22:55:07.016Z,14.47
2019-04-30T22:57:38.011Z,14.17
2019-04-30T23:00:11.143Z,14.67
2019-04-30T23:02:58.768Z,13.73
2019-04-30T23:05:28.289Z,13.87
2019-04-30T23:07:57.729Z,12.53
2019-04-30T23:10:27.246Z,11.70
2019-04-30T23:12:56.672Z,13.37
2019-04-30T23:15:26.198Z,13.20
2019-04-30T23:17:58.340Z,11.37
2019-04-30T23:20:27.885Z,11.57
2019-04-30T23:22:57.288Z,11.70
2019-04-30T23:25:26.732Z,12.47
2019-04-30T23:27:56.157Z,11.87
2019-04-30T23:30:25.695Z,12.70
2019-04-30T23:32:55.283Z,11.73
2019-04-30T23:35:24.764Z,13.23
2019-04-30T23:37:54.180Z,12.23
2019-04-30T23:40:32.105Z,12.20
2019-04-30T23:43:01.665Z,11.70
2019-04-30T23:45:31.093Z,13.93
2019-04-30T23:48:00.603Z,14.03
2019-04-30T23:50:30.075Z,13.50
2019-04-30T23:52:59.548Z,14.20
2019-04-30T23:55:28.997Z,14.40
2019-04-30T23:57:58.441Z,13.47
